Nearby METAR Reports

 

EHAM - Amsterdam/Schiph, Netherlands
Distance from station: WNW 24km
Updated: 23/01/2020 18:25
Mostly cloudy
Mostly cloudy
 Wind from varies
Wind: varies 4 km/h
Temperature: 5°C
Dew Point: 2°C
Humidity: 81%
Barometer: 1028 hPa
Clouds: Mostly cloudy
Visibility: 10 km
Cloud details: Mostly cloudy 488 m
2020/01/23 17:25 EHAM 231725Z VRB02KT 9999 BKN016 05/02 Q1028 BECMG SCT016
EHDL - Deelen Rnlafb, Netherlands
Distance from station: ESE 55km
Updated: 23/01/2020 18:25
Mist, Overcast
Mist, Overcast
 Wind from ENE
Wind: ENE 6 km/h
Temperature: 1°C
Dew Point: 1°C
Humidity: 100%
Barometer: 1028 hPa
Summary: Mist
Clouds: Overcast
Visibility: 3 km
Cloud details: Overcast 305 m
2020/01/23 17:25 EHDL 231725Z AUTO 07003KT 030V100 2600 BR OVC010 01/01 Q1028 YLO
EHRD - Rotterdam Airpor, Netherlands
Distance from station: SW 55km
Updated: 23/01/2020 18:25
Clear
Clear
 Wind from ENE
Wind: ENE 4 km/h
Temperature: 4°C
Dew Point: 2°C
Humidity: 87%
Barometer: 1028 hPa
Clouds: Clear
Visibility: 10 km
2020/01/23 17:25 EHRD 231725Z AUTO 07002KT 9999 NCD 04/02 Q1028 BECMG 7000
 
EHGR - Gilze-Rijen Rnla, Netherlands
Distance from station: S 75km
Updated: 23/01/2020 18:25
Overcast
Overcast
 Wind from ESE
Wind: ESE 7 km/h
Temperature: 4°C
Wind Chill: 2°C
Dew Point: 1°C
Humidity: 81%
Barometer: 1028 hPa
Clouds: Overcast
Visibility: 10 km
Cloud details: Overcast 396 m
2020/01/23 17:25 EHGR 231725Z AUTO 12004KT 080V150 9999 OVC013 04/01 Q1028 GRN 10004KT 9999 OVC015 BECMG 7000 BR OVC008
EHVK - Volkel Rnlafb, Netherlands
Distance from station: SSE 78km
Updated: 23/01/2020 18:25
Overcast
Overcast
 Wind from ESE
Wind: ESE 9 km/h
Temperature: 4°C
Wind Chill: 2°C
Dew Point: 1°C
Humidity: 81%
Barometer: 1028 hPa
Clouds: Overcast
Visibility: 10 km
Cloud details: Overcast 305 m
2020/01/23 17:25 EHVK 231725Z AUTO 12005KT 080V140 9999 OVC010 04/01 Q1028 GRN
EHKD - De Kooy (navy), Netherlands
Distance from station: NNW 80km
Updated: 23/01/2020 18:25
Overcast
Overcast
 Wind from SSE
Wind: SSE 9 km/h
Temperature: 6°C
Wind Chill: 4°C
Dew Point: 5°C
Humidity: 93%
Barometer: 1028 hPa
Clouds: Overcast
Visibility: 10 km
Cloud details: Overcast 366 m
2020/01/23 17:25 EHKD 231725Z AUTO 15005KT 120V190 9999 OVC012 06/05 Q1028 GRN 16005KT 9999 SCT010 BKN012 TEMPO 3500 BR SCT003 BKN005
 
EHEH - Eindhoven Rnlafb, Netherlands
Distance from station: SSE 89km
Updated: 23/01/2020 18:26
Mist, Overcast
Mist, Overcast
 Wind from varies
Wind: varies 9 km/h
Temperature: 3°C
Wind Chill: 0°C
Dew Point: 2°C
Humidity: 93%
Barometer: 1028 hPa
Summary: Mist
Clouds: Overcast
Visibility: 5 km
Cloud details: Overcast 183 m
2020/01/23 17:26 EHEH 231726Z AUTO VRB05KT 5000 BR OVC006 03/02 Q1028 YLO 12004KT 6000 BKN007 OVC008 BECMG 4000 BR
EDLV - Niederrhein, Germany
Distance from station: SE 100km
Updated: 23/01/2020 18:20
Mostly cloudy
Mostly cloudy
 Wind from SE
Wind: SE 7 km/h
Temperature: 4°C
Wind Chill: 2°C
Dew Point: 2°C
Humidity: 87%
Barometer: 1028 hPa
Clouds: Mostly cloudy
Visibility: 7 km
Cloud details: Mostly cloudy 305 m
2020/01/23 17:20 EDLV 231720Z 14004KT 100V170 7000 BKN010 04/02 Q1028
EHQE - Hoorn-A Sea, Netherlands
Distance from station: NW 100km
Updated: 23/01/2020 18:25
Mostly cloudy
Mostly cloudy
 Wind from S
Wind: S 13 km/h
Temperature: 7°C
Wind Chill: 5°C
Dew Point: 6°C
Humidity: 93%
Barometer: 1028 hPa
Clouds: Mostly cloudy
Visibility: 10 km
Cloud details: Few Clouds 152 m
Partly cloudy 183 m
Mostly cloudy 244 m
2020/01/23 17:25 EHQE 231725Z AUTO 17007KT 9999 FEW005 SCT006 BKN008 07/06 Q1028
 
EHWO - Woensdrecht Rnla, Netherlands
Distance from station: SSW 103km
Updated: 23/01/2020 18:25
Haze, Overcast
Haze, Overcast
 Wind from E
Wind: E 9 km/h
Temperature: 4°C
Wind Chill: 2°C
Dew Point: 2°C
Humidity: 87%
Barometer: 1028 hPa
Summary: Haze
Clouds: Overcast
Visibility: 9 km
Cloud details: Overcast 335 m
2020/01/23 17:25 EHWO 231725Z AUTO 09005KT 070V130 9000 HZ OVC011 04/02 Q1028 GRN
EHSC - Goeree Le Sea, Netherlands
Distance from station: WSW 104km
Updated: 23/01/2020 18:25

 Wind from ESE
Wind: ESE 11 km/h
Temperature: 7°C
Wind Chill: 5°C
Dew Point: 4°C
Humidity: 81%
Barometer: 1028 hPa
Visibility: 10 km
2020/01/23 17:25 EHSC 231725Z AUTO 12006KT 9999 ///////// 07/04 Q1028 W08/H4
EHVL - Vlieland Island, Netherlands
Distance from station: N 112km
Updated: 23/01/2020 18:27
Mist, Overcast
Mist, Overcast
 Wind from S
Wind: S 17 km/h
Temperature: 6°C
Wind Chill: 3°C
Dew Point: 5°C
Humidity: 93%
Barometer: 1028 hPa
Summary: Mist
Clouds: Overcast
Visibility: 3 km
Cloud details: Mostly cloudy 61 m
Overcast 183 m
2020/01/23 17:27 EHVL 231727Z AUTO 17009KT 2700 BR BKN002 OVC006 06/05 Q1028 AMB
 
EHLW - Leeuwarden Rnlaf, Netherlands
Distance from station: NNE 118km
Updated: 23/01/2020 18:25
Overcast
Overcast
 Wind from S
Wind: S 9 km/h
Temperature: 5°C
Wind Chill: 3°C
Dew Point: 4°C
Humidity: 93%
Barometer: 1028 hPa
Clouds: Overcast
Visibility: 10 km
Cloud details: Overcast 213 m
2020/01/23 17:25 EHLW 231725Z AUTO 17005KT 9999 OVC007 05/04 Q1028 GRN
EBBL - Kleine-Brogel(Ba, Belgium
Distance from station: SSE 121km
Updated: 23/01/2020 17:55
Overcast
Overcast
 Wind from E
Wind: E 7 km/h
Temperature: 2°C
Wind Chill: 0°C
Dew Point: 1°C
Humidity: 93%
Barometer: 1028 hPa
Clouds: Overcast
Visibility: 6 km
Cloud details: Overcast 183 m
2020/01/23 16:55 EBBL 231655Z AUTO 09004KT 6000 OVC006/// 02/01 Q1028 YLO
EHPG - P11-B Sea, Netherlands
Distance from station: W 121km
Updated: 23/01/2020 18:25

 
2020/01/23 17:25 EHPG 231725Z AUTO ///08KT 6000 FEW005 OVC017 07/06 Q1028
 
EBAW - Antwerp/Deurne, Belgium
Distance from station: SSW 123km
Updated: 23/01/2020 18:20
Mist, Mostly cloudy
Mist, Mostly cloudy
 Wind from E
Wind: E 13 km/h
Temperature: 4°C
Wind Chill: 1°C
Dew Point: 2°C
Humidity: 87%
Barometer: 1028 hPa
Summary: Mist
Clouds: Mostly cloudy
Visibility: 5 km
Cloud details: Mostly cloudy 183 m
2020/01/23 17:20 EBAW 231720Z 09007KT 4500 BR BKN006 04/02 Q1028 NOSIG
EHSA - Euro Platform, Netherlands
Distance from station: W 127km
Updated: 23/01/2020 18:25

 Wind from ESE
Wind: ESE 11 km/h
Temperature: 7°C
Wind Chill: 5°C
Dew Point: 5°C
Humidity: 87%
Barometer: 1028 hPa
Visibility: 10 km
2020/01/23 17:25 EHSA 231725Z AUTO 12006KT 9999 ///////// 07/05 Q1028 W06/H5
EBDT - Schaffen, Belgium
Distance from station: S 135km
Updated: 23/01/2020 17:55
Mist, Overcast
Mist, Overcast
 Wind from E
Wind: E 9 km/h
Temperature: 2°C
Wind Chill: -1°C
Dew Point: 1°C
Humidity: 93%
Barometer: 1028 hPa
Summary: Mist
Clouds: Overcast
Visibility: 4 km
Cloud details: Overcast 122 m
2020/01/23 16:55 EBDT 231655Z AUTO 10005KT 3700 BR OVC004/// 02/01 Q1028 YLO
 
EHFS - Vlissingen, Netherlands
Distance from station: SW 135km
Updated: 23/01/2020 17:55
Clear
Clear
 Wind from E
Wind: E 17 km/h
Temperature: 5°C
Wind Chill: 2°C
Dew Point: 2°C
Humidity: 81%
Barometer: 1028 hPa
Clouds: Clear
Visibility: 10 km
2020/01/23 16:55 EHFS 231655Z AUTO 10009KT 9999 NCD 05/02 Q1028
EHGG - Groningen/Eelde, Netherlands
Distance from station: NE 139km
Updated: 23/01/2020 18:25
Mist, Overcast
Mist, Overcast
 Wind from S
Wind: S 6 km/h
Temperature: 3°C
Dew Point: 3°C
Humidity: 100%
Barometer: 1028 hPa
Summary: Mist
Clouds: Overcast
Visibility: 4 km
Cloud details: Overcast 61 m
2020/01/23 17:25 EHGG 231725Z AUTO 17003KT 140V210 3800 BR OVC002 03/03 Q1028 BECMG 2500